Time;durP1;ratioP1;P1;durP2;ratioP2;P2;SDS_P1;SDS_P2;PMS_P1;PMS_P2;Temp;Humidity;BMP_temperature;BMP_pressure;BME280_temperature;BME280_humidity;BME280_pressure;Samples;Min_cycle;Max_cycle;Signal;HPM_P1;HPM_P2
2022/03/21 05:47:17;;;;;;;17.62;8.25;;;;;;;2.92;38.68;100969.13;4470014;31;131985;-72
2022/03/21 05:49:45;;;;;;;21.12;8.57;;;;;;;3.10;36.35;100975.59;4470436;32;20104;-71
2022/03/21 06:02:21;;;;;;;13.20;7.82;;;;;;;2.66;38.23;100973.13;4511287;31;75635;-84
2022/03/21 06:05:28;;;;;;;17.92;7.37;;;;;;;2.69;37.57;100974.78;4507644;31;77617;-77
2022/03/21 06:07:56;;;;;;;16.02;7.15;;;;;;;2.64;36.87;100982.63;4476009;31;20633;-77
2022/03/21 06:10:23;;;;;;;14.90;7.28;;;;;;;2.58;37.45;100976.75;4447390;32;20131;-74
2022/03/21 06:12:50;;;;;;;18.05;7.28;;;;;;;2.51;37.37;100976.00;4397463;32;20102;-79
2022/03/21 06:15:18;;;;;;;27.70;8.07;;;;;;;2.62;37.66;100981.84;4375782;32;64241;-80
2022/03/21 06:17:45;;;;;;;24.08;8.55;;;;;;;2.55;41.86;100982.00;4399919;32;20106;-77
2022/03/21 06:20:16;;;;;;;15.55;6.50;;;;;;;2.58;40.75;100979.34;4404454;32;20767;-74
2022/03/21 06:22:44;;;;;;;14.48;6.65;;;;;;;2.99;37.71;100978.44;4390631;32;20086;-72
2022/03/21 06:25:11;;;;;;;21.10;9.07;;;;;;;3.49;35.96;100982.50;4391332;32;20746;-74
2022/03/21 06:27:39;;;;;;;18.37;8.60;;;;;;;3.58;35.52;100984.84;4388697;32;20121;-73
2022/03/21 06:30:09;;;;;;;28.83;10.35;;;;;;;3.45;35.72;100986.91;4397985;32;20106;-74
2022/03/21 06:32:37;;;;;;;18.37;7.68;;;;;;;3.43;36.04;100985.22;4400644;32;20448;-74
2022/03/21 06:35:05;;;;;;;16.75;8.15;;;;;;;3.41;36.06;100981.81;4389854;32;20400;-73
2022/03/21 06:37:32;;;;;;;18.75;7.45;;;;;;;3.43;36.09;100983.47;4391359;32;20106;-74
2022/03/21 06:39:59;;;;;;;19.45;9.85;;;;;;;3.48;35.56;100985.97;4401754;32;20491;-73
2022/03/21 06:42:27;;;;;;;20.02;8.10;;;;;;;3.58;36.22;100982.25;4403681;32;20113;-74
2022/03/21 06:44:54;;;;;;;15.27;7.57;;;;;;;3.59;35.59;100994.34;4393539;32;20149;-74
2022/03/21 06:47:21;;;;;;;15.10;7.18;;;;;;;3.59;35.68;100983.97;4399665;32;20120;-74
2022/03/21 06:49:48;;;;;;;13.82;7.05;;;;;;;3.64;35.83;100992.47;4399611;32;20091;-75
2022/03/21 06:52:19;;;;;;;14.05;6.47;;;;;;;3.77;36.81;100990.44;4398694;32;20136;-77
2022/03/21 06:54:48;;;;;;;22.00;9.48;;;;;;;3.78;36.19;100992.13;4395361;32;20401;-73
2022/03/21 06:57:18;;;;;;;17.17;7.70;;;;;;;3.96;36.65;100992.56;4404410;32;20102;-76
2022/03/21 06:59:46;;;;;;;25.95;7.78;;;;;;;3.98;35.07;100995.94;4417972;32;20110;-74
2022/03/21 07:02:14;;;;;;;18.20;8.02;;;;;;;3.78;35.29;100999.91;4401334;32;20133;-75
2022/03/21 07:04:42;;;;;;;16.55;8.38;;;;;;;3.86;34.96;100990.22;4399824;32;20170;-75
2022/03/21 07:07:10;;;;;;;15.43;7.87;;;;;;;3.93;34.95;100998.66;4396288;32;20452;-72
2022/03/21 07:09:37;;;;;;;37.10;9.13;;;;;;;3.91;35.36;101005.63;4390605;32;20106;-76
2022/03/21 07:12:05;;;;;;;17.12;7.90;;;;;;;3.89;35.33;101008.28;4394317;32;20114;-76
2022/03/21 07:14:32;;;;;;;16.90;8.40;;;;;;;4.15;35.53;101008.47;4404162;32;20087;-76
2022/03/21 07:17:00;;;;;;;31.27;8.90;;;;;;;4.04;35.14;101007.03;4385496;32;20106;-77
2022/03/21 07:19:30;;;;;;;19.45;8.95;;;;;;;3.93;35.81;101011.62;4398901;32;20550;-78
2022/03/21 07:21:57;;;;;;;17.52;7.62;;;;;;;4.01;35.53;101016.63;4380211;32;20499;-79
2022/03/21 07:24:24;;;;;;;19.73;8.40;;;;;;;4.11;35.07;101018.09;4378287;32;20712;-75
2022/03/21 07:26:52;;;;;;;20.88;8.55;;;;;;;4.12;35.58;101013.75;4385921;32;20110;-77
2022/03/21 07:29:19;;;;;;;20.02;8.82;;;;;;;4.18;35.33;101009.25;4392881;32;20094;-75
2022/03/21 07:31:46;;;;;;;22.67;8.32;;;;;;;4.06;35.45;101009.59;4380869;32;20107;-74
2022/03/21 07:34:14;;;;;;;17.17;8.88;;;;;;;4.06;35.47;101014.78;4385961;32;20908;-82
2022/03/21 07:36:41;;;;;;;16.27;8.77;;;;;;;4.42;36.20;101012.94;4391522;32;20121;-78
2022/03/21 07:39:08;;;;;;;19.50;7.82;;;;;;;4.44;35.79;101011.13;4387338;32;20086;-77
2022/03/21 07:41:35;;;;;;;27.35;9.27;;;;;;;4.58;34.86;101015.09;4392108;32;20103;-75
2022/03/21 07:44:05;;;;;;;19.65;9.35;;;;;;;4.59;34.57;101015.03;4390024;32;20176;-75
2022/03/21 07:49:18;;;;;;;12.40;7.60;;;;;;;4.75;35.18;101015.47;4389224;32;20165;-77
2022/03/21 07:51:46;;;;;;;16.60;8.48;;;;;;;4.72;34.68;101014.69;4385945;32;20119;-76
2022/03/21 07:54:13;;;;;;;21.60;8.88;;;;;;;4.86;34.70;101020.34;4386085;32;20122;-79
2022/03/21 07:56:41;;;;;;;17.77;7.95;;;;;;;5.07;34.73;101018.88;4388556;32;20099;-75
2022/03/21 07:59:08;;;;;;;14.20;9.40;;;;;;;5.15;34.71;101019.47;4386212;32;20491;-78
2022/03/21 08:01:35;;;;;;;17.42;8.88;;;;;;;5.05;33.77;101025.84;4387827;32;20124;-78
2022/03/21 08:04:04;;;;;;;15.75;8.63;;;;;;;4.98;34.15;101032.09;4384773;32;20378;-83
2022/03/21 08:06:31;;;;;;;22.58;9.88;;;;;;;5.29;36.13;101026.00;4386680;32;20792;-79
2022/03/21 08:08:59;;;;;;;19.33;9.38;;;;;;;5.17;34.02;101028.97;4381671;32;20113;-79
2022/03/21 08:11:26;;;;;;;18.08;8.95;;;;;;;5.25;33.87;101024.38;4386370;32;20440;-76
2022/03/21 08:13:53;;;;;;;20.70;8.32;;;;;;;5.38;34.01;101027.47;4384614;32;20105;-77
2022/03/21 08:16:21;;;;;;;19.90;9.93;;;;;;;5.55;35.32;101024.31;4380111;32;20113;-76
2022/03/21 08:18:50;;;;;;;17.73;9.60;;;;;;;5.54;33.72;101025.22;4383678;32;20385;-76
2022/03/21 08:21:19;;;;;;;21.60;10.27;;;;;;;5.76;37.95;101014.97;4396188;32;20117;-79
2022/03/21 08:23:47;;;;;;;19.10;9.13;;;;;;;5.77;34.64;101022.72;4389298;32;20143;-80
2022/03/21 08:26:16;;;;;;;16.37;9.35;;;;;;;5.76;33.45;101023.63;4386215;32;20233;-82
2022/03/21 08:28:45;;;;;;;20.05;10.20;;;;;;;5.94;33.16;101024.75;4384386;32;20133;-81
2022/03/21 08:31:13;;;;;;;20.52;10.05;;;;;;;6.09;34.47;101010.41;4381503;32;20161;-82
2022/03/21 08:33:41;;;;;;;23.50;11.23;;;;;;;6.01;32.98;101015.88;4386611;32;20207;-81
2022/03/21 08:36:09;;;;;;;23.38;10.13;;;;;;;6.12;33.55;101012.06;4385615;32;20129;-82
2022/03/21 08:38:36;;;;;;;17.80;8.77;;;;;;;6.37;32.80;101012.03;4387751;32;20097;-80
2022/03/21 08:41:04;;;;;;;18.62;9.88;;;;;;;6.63;34.26;101002.44;4386617;32;20110;-77
2022/03/21 08:43:31;;;;;;;22.08;10.57;;;;;;;6.58;32.00;101005.19;4379261;32;20121;-78
2022/03/21 08:45:58;;;;;;;20.73;9.63;;;;;;;6.47;33.26;101003.00;4386117;32;20119;-77
2022/03/21 08:49:23;;;;;;;26.40;9.68;;;;;;;6.63;33.87;100998.09;4390805;32;20090;-76
2022/03/21 08:51:13;;;;;;;16.52;9.77;;;;;;;6.52;32.21;100998.47;4388545;32;20094;-81
2022/03/21 08:53:41;;;;;;;17.35;9.07;;;;;;;6.68;32.47;101000.53;4391441;32;20160;-80
2022/03/21 08:56:08;;;;;;;16.80;8.98;;;;;;;6.89;33.00;100993.66;4390217;32;20183;-79
2022/03/21 08:58:36;;;;;;;21.65;10.10;;;;;;;7.14;32.58;100987.50;4387715;32;20110;-79
2022/03/21 09:01:03;;;;;;;20.40;9.35;;;;;;;7.02;31.91;100991.41;4387743;32;20488;-78
2022/03/21 09:03:31;;;;;;;22.90;10.00;;;;;;;7.03;31.53;100993.13;4383352;32;20755;-78
2022/03/21 09:05:58;;;;;;;20.75;10.00;;;;;;;7.02;32.41;100992.25;4383279;32;20095;-79
2022/03/21 09:08:25;;;;;;;21.62;10.10;;;;;;;7.23;31.07;100993.16;4385338;32;20155;-78
2022/03/21 09:10:53;;;;;;;20.23;10.70;;;;;;;7.14;30.55;100990.94;4391014;32;20125;-77
2022/03/21 09:13:20;;;;;;;19.08;9.48;;;;;;;7.28;30.91;100990.38;4381673;32;20113;-78
2022/03/21 09:15:47;;;;;;;20.90;9.63;;;;;;;7.58;31.78;100988.28;4391101;32;20572;-78
2022/03/21 09:18:15;;;;;;;21.00;9.15;;;;;;;7.73;30.75;100991.19;4388536;32;20106;-78
2022/03/21 09:20:42;;;;;;;23.05;8.95;;;;;;;7.86;31.01;100983.69;4387758;32;20103;-78
2022/03/21 09:23:09;;;;;;;17.75;9.88;;;;;;;7.94;31.31;100985.06;4391966;32;20090;-78
2022/03/21 09:25:36;;;;;;;22.92;10.27;;;;;;;7.96;29.85;100982.37;4386734;32;20588;-78
2022/03/21 09:28:03;;;;;;;19.15;8.40;;;;;;;7.96;29.55;100978.03;4387362;32;20125;-80
2022/03/21 09:30:33;;;;;;;19.48;10.30;;;;;;;7.89;30.82;100976.59;4383114;32;20165;-79
2022/03/21 09:33:00;;;;;;;16.77;9.50;;;;;;;8.06;31.12;100973.25;4385176;32;20125;-77
2022/03/21 09:35:27;;;;;;;11.55;6.90;;;;;;;8.17;29.17;100972.78;4383467;32;20193;-77
2022/03/21 09:37:55;;;;;;;19.45;8.55;;;;;;;7.78;27.36;100978.78;4388053;32;20106;-77
2022/03/21 09:40:23;;;;;;;12.23;7.07;;;;;;;7.92;29.46;100973.84;4381704;32;20102;-77
2022/03/21 09:42:50;;;;;;;24.08;8.18;;;;;;;8.10;27.90;100979.16;4385667;32;20541;-77
2022/03/21 09:45:17;;;;;;;17.48;8.55;;;;;;;8.42;28.79;100967.31;4389982;32;20563;-77
2022/03/21 09:50:35;;;;;;;13.98;7.70;;;;;;;8.61;27.12;100975.19;4389253;32;20561;-77
2022/03/21 09:53:03;;;;;;;13.68;8.23;;;;;;;8.69;27.97;100970.47;4388090;32;20106;-78
2022/03/21 09:55:31;;;;;;;18.35;9.73;;;;;;;8.71;28.51;100970.41;4383863;32;20111;-77
2022/03/21 09:57:58;;;;;;;14.82;7.12;;;;;;;8.94;29.73;100969.31;4385925;32;20110;-77
2022/03/21 10:00:25;;;;;;;15.38;7.75;;;;;;;8.97;25.89;100977.03;4385156;32;20953;-77
2022/03/21 10:02:53;;;;;;;26.77;8.82;;;;;;;9.00;27.84;100970.81;4382349;32;20121;-77
2022/03/21 10:05:36;;;;;;;18.20;8.23;;;;;;;9.05;27.66;100972.28;4379350;32;20157;-76
2022/03/21 10:08:18;;;;;;;10.65;6.78;;;;;;;9.15;28.72;100964.00;4387633;32;21502;-76
2022/03/21 10:10:56;;;;;;;16.65;8.23;;;;;;;9.08;26.70;100971.28;4386427;32;20134;-75
2022/03/21 10:13:26;;;;;;;15.20;7.80;;;;;;;8.97;26.77;100960.50;4387018;32;20094;-75
2022/03/21 10:16:10;;;;;;;14.93;8.15;;;;;;;8.73;27.25;100959.88;4382238;32;20181;-76
2022/03/21 10:18:56;;;;;;;17.35;8.23;;;;;;;9.00;26.91;100949.91;4383973;32;20169;-76
2022/03/21 10:21:28;;;;;;;16.27;7.87;;;;;;;9.02;27.78;100954.16;4383236;32;20087;-75
2022/03/21 10:24:07;;;;;;;17.00;8.40;;;;;;;9.16;26.57;100945.63;4381302;32;20590;-76
2022/03/21 10:26:39;;;;;;;16.35;9.00;;;;;;;9.23;27.12;100959.25;4382422;32;20452;-74
2022/03/21 10:29:10;;;;;;;17.17;8.80;;;;;;;9.54;27.12;100953.34;4392148;32;20106;-74
2022/03/21 10:31:42;;;;;;;17.25;8.60;;;;;;;9.55;26.42;100954.19;4387029;32;20083;-74
2022/03/21 10:34:16;;;;;;;14.68;8.93;;;;;;;9.37;25.69;100946.34;4385090;32;20128;-74
2022/03/21 10:37:02;;;;;;;;;;;;;;;9.12;26.54;100949.31;4383241;32;20547;-72
2022/03/21 10:39:32;;;;;;;14.73;8.25;;;;;;;9.06;26.01;100939.97;4384588;32;20061;-75
2022/03/21 10:42:02;;;;;;;15.88;8.13;;;;;;;9.34;26.41;100933.44;4385940;32;20083;-75
2022/03/21 10:44:30;;;;;;;12.20;7.78;;;;;;;9.55;27.07;100926.28;4382905;32;20453;-76
2022/03/21 10:46:59;;;;;;;17.70;9.15;;;;;;;9.61;25.99;100919.88;4387234;32;20093;-81
2022/03/21 10:49:33;;;;;;;14.90;8.25;;;;;;;9.60;26.40;100918.19;4384467;32;20098;-78
2022/03/21 10:52:02;;;;;;;18.10;8.18;;;;;;;9.74;26.58;100915.69;4397168;32;20162;-78
2022/03/21 10:54:41;;;;;;;20.23;10.00;;;;;;;9.66;28.78;100912.66;4389781;32;20090;-77
2022/03/21 10:57:33;;;;;;;11.88;7.70;;;;;;;9.94;26.65;100914.66;4387600;32;20128;-78
2022/03/21 11:00:20;;;;;;;14.80;7.65;;;;;;;9.97;24.98;100915.44;4391902;32;20168;-77
2022/03/21 11:02:48;;;;;;;13.82;8.25;;;;;;;9.91;24.95;100917.44;4386179;32;20094;-82
2022/03/21 11:05:17;;;;;;;24.17;9.00;;;;;;;9.91;24.61;100909.59;4383892;32;20143;-78
2022/03/21 11:07:45;;;;;;;17.25;8.25;;;;;;;9.77;25.09;100905.06;4389112;32;20103;-82
2022/03/21 11:10:12;;;;;;;15.95;9.25;;;;;;;9.68;24.96;100902.94;4391460;32;20171;-79
2022/03/21 11:12:43;;;;;;;16.23;8.07;;;;;;;9.68;24.63;100896.88;4383547;32;20119;-77
2022/03/21 11:15:11;;;;;;;18.02;9.27;;;;;;;10.05;26.94;100900.16;4384053;32;20120;-76
2022/03/21 11:17:40;;;;;;;14.35;8.57;;;;;;;10.24;25.36;100894.81;4390473;32;20124;-76
2022/03/21 11:20:09;;;;;;;13.25;7.43;;;;;;;10.20;25.31;100888.03;4390144;32;20614;-79
2022/03/21 11:22:38;;;;;;;19.60;7.72;;;;;;;10.24;24.44;100882.53;4382418;32;20129;-78
2022/03/21 11:25:07;;;;;;;13.05;7.75;;;;;;;10.21;25.40;100879.25;4390049;32;20114;-76
2022/03/21 11:28:14;;;;;;;16.70;8.13;;;;;;;10.07;24.29;100869.53;4387514;32;20217;-76
2022/03/21 11:30:59;;;;;;;25.23;7.70;;;;;;;10.24;24.72;100881.72;4360206;32;20094;-77
2022/03/21 11:33:35;;;;;;;10.77;5.68;;;;;;;10.44;24.41;100863.16;4358625;32;20125;-78
2022/03/21 11:36:05;;;;;;;9.32;5.30;;;;;;;10.99;24.84;100860.97;4358633;32;20545;-79
2022/03/21 11:38:41;;;;;;;16.30;6.97;;;;;;;10.70;23.05;100865.25;4358749;32;20106;-78
2022/03/21 11:41:14;;;;;;;15.50;6.97;;;;;;;10.33;23.78;100864.66;4361207;32;20129;-80
2022/03/21 11:43:43;;;;;;;13.57;7.10;;;;;;;10.46;23.24;100870.91;4359410;32;20162;-79
2022/03/21 11:46:30;;;;;;;14.75;8.07;;;;;;;10.39;23.18;100854.72;4358370;32;20137;-78
2022/03/21 11:49:00;;;;;;;13.18;7.18;;;;;;;10.50;23.97;100866.38;4357587;32;20566;-78
2022/03/21 11:51:40;;;;;;;12.50;8.00;;;;;;;10.63;23.08;100860.37;4367042;32;20281;-79
2022/03/21 11:54:30;;;;;;;14.50;7.57;;;;;;;10.82;23.18;100852.31;4362540;32;20690;-79
2022/03/21 11:57:05;;;;;;;17.98;8.18;;;;;;;11.13;23.51;100858.41;4368027;32;20110;-79
2022/03/21 11:59:33;;;;;;;14.55;7.28;;;;;;;11.15;22.98;100848.66;4368661;32;20153;-79
2022/03/21 12:02:22;;;;;;;13.35;7.93;;;;;;;11.50;23.71;100839.66;4361202;32;20167;-78
2022/03/21 12:04:57;;;;;;;14.85;8.43;;;;;;;11.39;23.53;100835.03;4358244;32;20111;-80
2022/03/21 12:07:25;;;;;;;12.13;6.75;;;;;;;10.95;23.08;100836.72;4370820;32;20207;-80
2022/03/21 12:09:54;;;;;;;12.43;7.28;;;;;;;11.21;22.28;100838.75;4387073;32;20459;-80
2022/03/21 12:12:23;;;;;;;14.40;6.93;;;;;;;11.36;22.71;100829.97;4389915;32;20094;-76
2022/03/21 12:15:00;;;;;;;19.95;7.03;;;;;;;11.91;22.66;100823.16;4387299;32;20566;-75
2022/03/21 12:17:27;;;;;;;16.70;8.13;;;;;;;12.45;22.32;100830.31;4384904;32;20185;-74
2022/03/21 12:19:57;;;;;;;10.52;7.20;;;;;;;12.19;22.94;100824.94;4386550;32;20098;-75
2022/03/21 12:22:30;;;;;;;11.25;7.10;;;;;;;12.15;23.00;100817.34;4388056;32;20095;-74
2022/03/21 12:25:38;;;;;;;15.55;8.02;;;;;;;12.29;22.98;100814.66;4388293;32;20436;-75
2022/03/21 12:31:26;;;;;;;13.07;7.10;;;;;;;12.71;21.43;100793.59;4320546;33;20746;-74
2022/03/21 12:34:32;;;;;;;10.35;6.87;;;;;;;11.75;21.47;100797.00;4320547;33;20112;-74
2022/03/21 12:37:28;;;;;;;12.45;7.97;;;;;;;12.43;21.46;100796.25;4312660;33;20868;-76
2022/03/21 12:39:56;;;;;;;12.55;7.45;;;;;;;12.40;21.23;100787.72;4307628;33;20522;-74
2022/03/21 12:42:26;;;;;;;12.65;6.97;;;;;;;12.59;21.77;100780.31;4315403;33;20626;-72
2022/03/21 12:44:54;;;;;;;12.50;7.07;;;;;;;12.56;21.40;100780.50;4312290;33;20155;-72
2022/03/21 12:47:22;;;;;;;9.00;6.35;;;;;;;11.99;21.85;100786.78;4312922;33;20192;-72
2022/03/21 12:49:51;;;;;;;12.02;7.05;;;;;;;12.51;22.31;100779.97;4313459;33;20112;-71
2022/03/21 12:52:27;;;;;;;14.27;6.85;;;;;;;12.34;20.83;100767.06;4314222;33;20120;-71
2022/03/21 12:54:56;;;;;;;14.40;6.90;;;;;;;12.04;21.84;100774.19;4313193;33;20214;-72
2022/03/21 12:57:25;;;;;;;9.73;6.62;;;;;;;12.55;20.57;100765.69;4307156;33;20139;-73
2022/03/21 12:59:52;;;;;;;9.32;6.47;;;;;;;12.06;21.31;100766.22;4321112;33;20119;-73
2022/03/21 13:02:26;;;;;;;11.18;6.80;;;;;;;11.93;21.54;100766.16;4317627;33;20120;-73
2022/03/21 13:10:39;;;;;;;10.25;6.97;;;;;;;12.69;21.70;100759.53;4381018;32;20507;-73
2022/03/21 13:13:06;;;;;;;12.50;7.50;;;;;;;12.21;21.62;100757.34;4378692;32;20657;-73
2022/03/21 13:15:36;;;;;;;13.40;6.40;;;;;;;11.81;21.78;100756.38;4382930;32;20094;-73
2022/03/21 13:18:04;;;;;;;8.43;5.50;;;;;;;11.88;21.94;100753.28;4380786;32;20668;-73
2022/03/21 13:20:40;;;;;;;10.80;5.87;;;;;;;12.56;20.46;100750.75;4378305;32;20138;-71
2022/03/21 13:23:07;;;;;;;10.68;5.90;;;;;;;12.42;21.11;100746.41;4380614;32;21101;-72
2022/03/21 13:25:41;;;;;;;;;;;;;;;12.30;21.07;100755.09;4384147;32;20094;-73
2022/03/21 13:28:14;;;;;;;12.07;6.15;;;;;;;12.27;21.11;100748.25;4369677;32;20090;-73
2022/03/21 13:30:54;;;;;;;11.65;5.47;;;;;;;12.83;20.84;100739.34;4376944;32;20118;-73
2022/03/21 13:33:23;;;;;;;10.10;5.78;;;;;;;12.66;20.45;100737.84;4376744;32;20555;-72
2022/03/21 13:35:52;;;;;;;19.45;7.30;;;;;;;13.02;20.42;100738.94;4379697;32;20344;-74
2022/03/21 13:38:22;;;;;;;13.68;6.85;;;;;;;13.26;20.82;100744.31;4371928;32;20103;-73
2022/03/21 13:40:50;;;;;;;9.85;5.72;;;;;;;13.18;20.59;100736.94;4370063;32;20205;-71
2022/03/21 13:43:28;;;;;;;10.20;6.22;;;;;;;13.13;19.68;100736.44;4373062;32;20141;-73
2022/03/21 13:45:58;;;;;;;8.63;5.78;;;;;;;12.69;20.73;100727.12;4377736;32;20174;-72
2022/03/21 13:48:32;;;;;;;9.63;5.65;;;;;;;13.08;19.80;100728.00;4383348;32;20090;-73
2022/03/21 13:51:07;;;;;;;8.55;6.03;;;;;;;13.48;19.86;100725.28;4386257;32;20397;-73
2022/03/21 13:53:39;;;;;;;11.75;6.05;;;;;;;13.46;19.23;100721.91;4385912;32;20118;-73
2022/03/21 13:56:08;;;;;;;11.10;6.37;;;;;;;12.59;19.78;100727.72;4388360;32;20117;-73
2022/03/21 13:58:36;;;;;;;8.45;5.68;;;;;;;12.42;20.18;100717.50;4389222;32;20133;-74
2022/03/21 14:01:18;;;;;;;10.45;6.00;;;;;;;12.72;20.47;100711.97;4390652;32;20157;-75
2022/03/21 14:03:50;;;;;;;9.32;6.20;;;;;;;13.27;20.08;100712.63;4388040;32;20118;-75
2022/03/21 14:06:17;;;;;;;10.60;5.87;;;;;;;13.14;19.68;100704.75;4386735;32;20091;-73
2022/03/21 14:08:44;;;;;;;13.57;6.03;;;;;;;13.22;20.71;100698.94;4389105;32;20468;-76
2022/03/21 14:11:22;;;;;;;10.07;6.10;;;;;;;13.89;19.78;100703.03;4389736;32;20132;-75
2022/03/21 14:13:50;;;;;;;12.95;6.28;;;;;;;14.29;20.01;100697.50;4391618;32;20125;-76
2022/03/21 14:16:17;;;;;;;9.73;6.40;;;;;;;13.89;19.02;100708.31;4384769;32;20192;-75
2022/03/21 14:18:55;;;;;;;10.23;5.72;;;;;;;14.11;21.41;100697.06;4407003;32;20172;-75
2022/03/21 14:21:23;;;;;;;16.95;5.35;;;;;;;14.58;20.24;100701.56;4393515;32;20468;-76
2022/03/21 14:23:50;;;;;;;14.87;5.90;;;;;;;14.80;20.31;100693.72;4389959;32;20090;-75
2022/03/21 14:26:30;;;;;;;10.80;5.60;;;;;;;14.90;19.45;100699.16;4384165;32;20160;-76
2022/03/21 14:28:58;;;;;;;12.75;6.72;;;;;;;14.79;20.31;100694.72;4387145;32;20873;-76
2022/03/21 14:31:26;;;;;;;10.52;5.80;;;;;;;14.21;19.50;100691.94;4388959;32;20512;-76
2022/03/21 14:33:53;;;;;;;24.17;6.53;;;;;;;14.54;19.21;100685.13;4392291;32;20106;-75
2022/03/21 14:36:20;;;;;;;14.55;6.00;;;;;;;14.39;19.24;100692.38;4388252;32;20115;-74
2022/03/21 14:38:48;;;;;;;9.85;5.87;;;;;;;14.47;19.34;100681.25;4384354;32;20110;-75
2022/03/21 14:41:16;;;;;;;9.00;5.60;;;;;;;13.75;19.23;100680.34;4388734;32;20103;-74
2022/03/21 14:43:46;;;;;;;12.30;6.03;;;;;;;13.56;19.11;100675.53;4386244;32;20128;-74
2022/03/21 14:46:16;;;;;;;19.40;7.40;;;;;;;13.27;20.32;100675.78;4391670;32;20140;-74
2022/03/21 14:48:43;;;;;;;71.22;8.50;;;;;;;13.39;19.59;100679.38;4388444;32;20098;-74
2022/03/21 14:51:10;;;;;;;10.75;5.82;;;;;;;12.86;19.36;100679.47;4387106;32;20111;-75
2022/03/21 14:53:38;;;;;;;14.32;6.10;;;;;;;13.35;20.12;100674.44;4388808;32;20090;-73
2022/03/21 14:56:06;;;;;;;26.83;6.90;;;;;;;13.42;19.15;100673.88;4391758;32;20452;-75
2022/03/21 14:58:35;;;;;;;13.32;6.62;;;;;;;13.88;20.71;100671.53;4392514;32;20218;-77
2022/03/21 15:01:06;;;;;;;36.30;7.10;;;;;;;13.35;19.33;100666.53;4391108;32;20125;-75
2022/03/21 15:03:36;;;;;;;16.08;6.93;;;;;;;13.55;19.15;100673.00;4388419;32;20166;-75
2022/03/21 15:06:04;;;;;;;10.80;5.50;;;;;;;13.32;19.76;100662.28;4379072;32;20427;-74
2022/03/21 15:08:31;;;;;;;12.00;6.40;;;;;;;13.63;20.28;100661.00;4391988;32;20172;-74
2022/03/21 15:10:58;;;;;;;25.37;6.43;;;;;;;13.93;20.93;100662.38;4392368;32;20250;-75
2022/03/21 15:13:26;;;;;;;13.23;6.25;;;;;;;14.24;21.41;100660.09;4392976;32;20416;-76
2022/03/21 15:15:53;;;;;;;11.80;5.95;;;;;;;14.46;19.02;100655.84;4392861;32;20098;-75
2022/03/21 15:18:21;;;;;;;11.93;5.60;;;;;;;14.09;18.65;100650.69;4391260;32;20119;-75
2022/03/21 15:20:48;;;;;;;11.75;6.03;;;;;;;14.10;19.11;100647.09;4390646;32;20384;-76
2022/03/21 15:23:15;;;;;;;16.90;6.62;;;;;;;14.85;18.65;100651.16;4390655;32;20152;-74
2022/03/21 15:25:43;;;;;;;16.87;6.18;;;;;;;14.63;18.74;100646.69;4384345;32;20099;-74
2022/03/21 15:28:13;;;;;;;17.27;6.97;;;;;;;14.78;17.72;100647.34;4387315;32;20106;-77
2022/03/21 15:30:40;;;;;;;83.60;11.32;;;;;;;14.30;18.46;100648.25;4382615;32;20092;-78
2022/03/21 15:33:09;;;;;;;11.98;6.78;;;;;;;14.54;18.16;100643.75;4377074;32;20095;-79
2022/03/21 15:35:36;;;;;;;13.30;5.72;;;;;;;14.30;18.37;100645.62;4376113;32;20094;-79
2022/03/21 15:43:42;;;;;;;20.12;6.75;;;;;;;13.47;19.00;100644.59;4375090;32;20515;-78
2022/03/21 15:46:09;;;;;;;10.95;5.80;;;;;;;13.89;18.64;100646.87;4375392;32;20606;-78
2022/03/21 15:48:36;;;;;;;9.05;5.90;;;;;;;14.03;18.29;100638.78;4375689;32;20086;-78
2022/03/21 15:51:03;;;;;;;11.60;5.68;;;;;;;13.40;18.01;100644.22;4374831;32;20103;-78
2022/03/21 15:53:31;;;;;;;9.50;5.82;;;;;;;13.84;17.93;100634.06;4376015;32;20125;-79
2022/03/21 15:55:58;;;;;;;13.57;6.18;;;;;;;13.98;18.04;100644.41;4383116;32;20137;-78
2022/03/21 15:58:25;;;;;;;10.43;5.70;;;;;;;13.48;17.98;100651.56;4391407;32;20172;-79
2022/03/21 16:00:52;;;;;;;12.95;5.72;;;;;;;13.11;18.51;100641.81;4391505;32;20125;-79
2022/03/21 16:03:22;;;;;;;11.35;5.70;;;;;;;13.17;18.49;100643.19;4391302;32;20633;-78
2022/03/21 16:05:51;;;;;;;22.42;5.95;;;;;;;12.99;18.95;100644.44;4391799;32;20741;-78
2022/03/21 16:08:19;;;;;;;10.32;6.12;;;;;;;13.23;18.76;100642.75;4390604;32;20531;-79
2022/03/21 16:10:47;;;;;;;17.52;7.05;;;;;;;13.47;18.54;100641.97;4391742;32;20094;-78
2022/03/21 16:13:14;;;;;;;11.02;6.45;;;;;;;13.79;18.35;100644.06;4392076;32;20090;-78
2022/03/21 16:15:42;;;;;;;14.75;6.22;;;;;;;13.77;17.79;100651.25;4392344;32;20094;-78
2022/03/21 16:18:11;;;;;;;8.15;5.70;;;;;;;13.39;18.41;100654.84;4392425;32;20172;-78
2022/03/21 16:20:41;;;;;;;12.37;5.85;;;;;;;12.92;18.17;100652.75;4392559;32;20102;-78
2022/03/21 16:23:10;;;;;;;11.35;6.30;;;;;;;13.36;18.19;100648.00;4392029;32;20109;-78
2022/03/21 16:25:37;;;;;;;7.75;5.22;;;;;;;13.01;18.58;100647.81;4391545;32;20082;-74
2022/03/21 16:28:05;;;;;;;9.77;5.70;;;;;;;12.93;18.87;100657.06;4391729;32;20448;-73
2022/03/21 16:30:33;;;;;;;10.43;6.30;;;;;;;12.87;18.57;100657.50;4391762;32;20577;-73
2022/03/21 16:33:02;;;;;;;13.07;6.28;;;;;;;12.56;18.97;100659.56;4391691;32;20098;-74
2022/03/21 16:35:29;;;;;;;12.45;6.05;;;;;;;12.31;19.42;100649.00;4391679;32;20106;-74
2022/03/21 16:37:57;;;;;;;16.65;7.35;;;;;;;12.25;19.35;100655.53;4391374;32;20169;-73
2022/03/21 16:40:25;;;;;;;14.95;7.12;;;;;;;11.95;19.73;100655.75;4392937;32;20106;-74
2022/03/21 16:42:54;;;;;;;10.55;5.93;;;;;;;11.76;20.32;100658.69;4392729;32;20106;-74
2022/03/21 16:45:21;;;;;;;15.63;6.50;;;;;;;12.07;19.74;100657.59;4393003;32;20610;-74
2022/03/21 16:47:48;;;;;;;16.12;7.03;;;;;;;11.57;20.20;100659.84;4391730;32;20436;-73
2022/03/21 16:50:16;;;;;;;18.40;6.68;;;;;;;11.35;20.10;100653.34;4392850;32;20531;-73
2022/03/21 16:52:44;;;;;;;21.23;7.22;;;;;;;10.60;21.07;100657.87;4392804;32;20091;-73
2022/03/21 16:55:12;;;;;;;15.52;7.18;;;;;;;10.24;21.57;100656.44;4392940;32;20090;-73
2022/03/21 16:57:40;;;;;;;20.00;6.90;;;;;;;10.14;21.76;100656.09;4392661;32;20158;-74
2022/03/21 17:00:08;;;;;;;22.23;8.25;;;;;;;10.18;21.83;100654.19;4392954;32;20095;-73
2022/03/21 17:02:39;;;;;;;19.67;10.68;;;;;;;9.89;21.76;100659.28;4393143;32;20189;-73
2022/03/21 17:05:14;;;;;;;24.48;13.55;;;;;;;9.73;22.16;100673.22;4392679;32;20107;-73
2022/03/21 17:07:47;;;;;;;20.98;12.48;;;;;;;9.48;22.86;100663.25;4392749;32;20104;-74
2022/03/21 17:10:16;;;;;;;17.42;10.60;;;;;;;9.38;22.66;100656.84;4392843;32;20079;-73
2022/03/21 17:12:45;;;;;;;22.83;12.73;;;;;;;9.29;22.89;100662.56;4392689;32;20137;-74
2022/03/21 17:15:12;;;;;;;20.12;12.82;;;;;;;9.10;22.87;100662.69;4392885;32;20132;-74
2022/03/21 17:17:39;;;;;;;34.75;15.88;;;;;;;9.08;22.98;100657.53;4392476;32;20148;-74
2022/03/21 17:23:06;;;;;;;22.92;11.70;;;;;;;8.84;23.02;100657.03;4392742;32;20098;-74
2022/03/21 17:25:35;;;;;;;19.12;9.52;;;;;;;8.63;23.29;100659.84;4392843;32;20610;-74
2022/03/21 17:28:04;;;;;;;18.60;9.43;;;;;;;8.17;24.03;100656.88;4392582;32;20097;-73
2022/03/21 17:30:37;;;;;;;17.05;9.25;;;;;;;7.91;24.63;100645.94;4392681;32;20095;-73
2022/03/21 17:33:04;;;;;;;17.23;9.30;;;;;;;7.82;24.74;100664.63;4392605;32;20122;-74
2022/03/21 17:35:32;;;;;;;22.60;10.35;;;;;;;7.59;24.83;100661.34;4392527;32;20102;-73
2022/03/21 17:38:00;;;;;;;16.30;9.70;;;;;;;7.47;25.42;100669.72;4392507;32;20148;-73
2022/03/21 17:40:28;;;;;;;24.10;11.40;;;;;;;7.24;25.34;100671.63;4392494;32;20408;-73
2022/03/21 17:42:57;;;;;;;19.40;11.38;;;;;;;7.11;25.70;100660.03;4392448;32;20182;-73
2022/03/21 17:45:26;;;;;;;19.92;9.82;;;;;;;7.00;25.51;100657.91;4392487;32;20445;-73
2022/03/21 17:47:54;;;;;;;27.08;10.27;;;;;;;7.12;25.90;100659.12;4392340;32;20148;-73
2022/03/21 17:50:22;;;;;;;21.15;11.73;;;;;;;7.03;25.94;100663.00;4392492;32;20119;-73
2022/03/21 17:52:50;;;;;;;22.17;14.13;;;;;;;7.13;25.85;100666.06;4392304;32;20099;-73
2022/03/21 17:55:17;;;;;;;36.25;18.02;;;;;;;7.10;25.84;100663.56;4392285;32;20102;-73